sensor_id;sensor_type;location;lat;lon;timestamp;P1;durP1;ratioP1;P2;durP2;ratioP2
78844;SDS011;68195;50.854;2.860;2023-10-13T00:02:10;6.95;;;2.45;;
78844;SDS011;68195;50.854;2.860;2023-10-13T00:04:39;6.22;;;2.78;;
78844;SDS011;68195;50.854;2.860;2023-10-13T00:07:05;6.82;;;2.83;;
78844;SDS011;68195;50.854;2.860;2023-10-13T00:09:33;5.78;;;3.10;;
78844;SDS011;68195;50.854;2.860;2023-10-13T00:12:02;5.35;;;2.70;;
78844;SDS011;68195;50.854;2.860;2023-10-13T00:14:40;5.00;;;2.55;;
78844;SDS011;68195;50.854;2.860;2023-10-13T00:17:06;6.03;;;2.88;;
78844;SDS011;68195;50.854;2.860;2023-10-13T00:19:37;5.97;;;2.65;;
78844;SDS011;68195;50.854;2.860;2023-10-13T00:22:08;6.03;;;2.60;;
78844;SDS011;68195;50.854;2.860;2023-10-13T00:24:37;6.97;;;2.70;;
78844;SDS011;68195;50.854;2.860;2023-10-13T00:27:14;7.43;;;2.97;;
78844;SDS011;68195;50.854;2.860;2023-10-13T00:30:01;6.45;;;2.97;;
78844;SDS011;68195;50.854;2.860;2023-10-13T00:32:51;7.63;;;2.90;;
78844;SDS011;68195;50.854;2.860;2023-10-13T00:35:20;4.30;;;2.42;;
78844;SDS011;68195;50.854;2.860;2023-10-13T00:38:15;8.98;;;3.00;;
78844;SDS011;68195;50.854;2.860;2023-10-13T00:40:43;4.32;;;2.80;;
78844;SDS011;68195;50.854;2.860;2023-10-13T00:43:19;7.85;;;2.85;;
78844;SDS011;68195;50.854;2.860;2023-10-13T00:48:25;6.80;;;2.72;;
78844;SDS011;68195;50.854;2.860;2023-10-13T00:51:01;4.28;;;2.42;;
78844;SDS011;68195;50.854;2.860;2023-10-13T00:53:38;5.88;;;2.22;;
78844;SDS011;68195;50.854;2.860;2023-10-13T00:56:09;5.28;;;2.53;;
78844;SDS011;68195;50.854;2.860;2023-10-13T00:58:43;3.88;;;2.33;;
78844;SDS011;68195;50.854;2.860;2023-10-13T01:01:13;4.28;;;2.47;;
78844;SDS011;68195;50.854;2.860;2023-10-13T01:03:56;4.00;;;2.30;;
78844;SDS011;68195;50.854;2.860;2023-10-13T01:06:24;7.47;;;2.63;;
78844;SDS011;68195;50.854;2.860;2023-10-13T01:11:47;6.30;;;2.85;;
78844;SDS011;68195;50.854;2.860;2023-10-13T01:14:17;6.38;;;2.50;;
78844;SDS011;68195;50.854;2.860;2023-10-13T01:16:46;4.85;;;2.30;;
78844;SDS011;68195;50.854;2.860;2023-10-13T01:19:17;4.75;;;2.78;;
78844;SDS011;68195;50.854;2.860;2023-10-13T01:21:50;4.03;;;2.33;;
78844;SDS011;68195;50.854;2.860;2023-10-13T01:24:21;3.53;;;2.38;;
78844;SDS011;68195;50.854;2.860;2023-10-13T01:26:50;9.77;;;2.50;;
78844;SDS011;68195;50.854;2.860;2023-10-13T01:29:18;5.88;;;2.28;;
78844;SDS011;68195;50.854;2.860;2023-10-13T01:31:44;5.13;;;2.67;;
78844;SDS011;68195;50.854;2.860;2023-10-13T01:34:16;3.97;;;2.42;;
78844;SDS011;68195;50.854;2.860;2023-10-13T01:36:50;3.63;;;2.40;;
78844;SDS011;68195;50.854;2.860;2023-10-13T01:39:22;4.15;;;2.47;;
78844;SDS011;68195;50.854;2.860;2023-10-13T01:41:55;6.80;;;2.90;;
78844;SDS011;68195;50.854;2.860;2023-10-13T01:44:29;4.75;;;3.17;;
78844;SDS011;68195;50.854;2.860;2023-10-13T01:47:01;7.20;;;2.92;;
78844;SDS011;68195;50.854;2.860;2023-10-13T01:49:35;7.68;;;3.75;;
78844;SDS011;68195;50.854;2.860;2023-10-13T01:52:26;8.55;;;3.90;;
78844;SDS011;68195;50.854;2.860;2023-10-13T01:54:54;7.60;;;4.47;;
78844;SDS011;68195;50.854;2.860;2023-10-13T01:57:23;8.43;;;5.03;;
78844;SDS011;68195;50.854;2.860;2023-10-13T01:59:53;12.57;;;4.90;;
78844;SDS011;68195;50.854;2.860;2023-10-13T02:02:21;12.32;;;6.40;;
78844;SDS011;68195;50.854;2.860;2023-10-13T02:04:55;9.75;;;5.88;;
78844;SDS011;68195;50.854;2.860;2023-10-13T02:07:22;9.15;;;6.10;;
78844;SDS011;68195;50.854;2.860;2023-10-13T02:09:57;9.75;;;6.30;;
78844;SDS011;68195;50.854;2.860;2023-10-13T02:12:25;12.60;;;7.25;;
78844;SDS011;68195;50.854;2.860;2023-10-13T02:15:03;13.55;;;6.70;;
78844;SDS011;68195;50.854;2.860;2023-10-13T02:17:30;12.88;;;6.72;;
78844;SDS011;68195;50.854;2.860;2023-10-13T02:20:07;12.13;;;8.32;;
78844;SDS011;68195;50.854;2.860;2023-10-13T02:22:39;11.00;;;7.13;;
78844;SDS011;68195;50.854;2.860;2023-10-13T02:25:11;11.40;;;6.68;;
78844;SDS011;68195;50.854;2.860;2023-10-13T02:27:42;9.68;;;7.10;;
78844;SDS011;68195;50.854;2.860;2023-10-13T02:30:08;12.05;;;7.15;;
78844;SDS011;68195;50.854;2.860;2023-10-13T02:32:40;11.02;;;6.85;;
78844;SDS011;68195;50.854;2.860;2023-10-13T02:35:09;8.73;;;6.68;;
78844;SDS011;68195;50.854;2.860;2023-10-13T02:37:41;12.30;;;7.47;;
78844;SDS011;68195;50.854;2.860;2023-10-13T02:40:12;13.63;;;7.43;;
78844;SDS011;68195;50.854;2.860;2023-10-13T02:42:37;10.25;;;7.03;;
78844;SDS011;68195;50.854;2.860;2023-10-13T02:45:04;17.70;;;6.97;;
78844;SDS011;68195;50.854;2.860;2023-10-13T02:47:33;13.38;;;7.40;;
78844;SDS011;68195;50.854;2.860;2023-10-13T02:49:58;9.30;;;5.90;;
78844;SDS011;68195;50.854;2.860;2023-10-13T02:52:26;10.30;;;6.35;;
78844;SDS011;68195;50.854;2.860;2023-10-13T02:54:52;10.98;;;6.78;;
78844;SDS011;68195;50.854;2.860;2023-10-13T02:57:17;10.27;;;7.22;;
78844;SDS011;68195;50.854;2.860;2023-10-13T02:59:44;13.00;;;7.03;;
78844;SDS011;68195;50.854;2.860;2023-10-13T03:02:20;11.32;;;5.90;;
78844;SDS011;68195;50.854;2.860;2023-10-13T03:04:50;8.98;;;6.15;;
78844;SDS011;68195;50.854;2.860;2023-10-13T03:07:24;12.23;;;5.43;;
78844;SDS011;68195;50.854;2.860;2023-10-13T03:09:53;9.73;;;5.53;;
78844;SDS011;68195;50.854;2.860;2023-10-13T03:12:34;9.88;;;5.07;;
78844;SDS011;68195;50.854;2.860;2023-10-13T03:15:00;9.85;;;4.85;;
78844;SDS011;68195;50.854;2.860;2023-10-13T03:17:46;10.02;;;5.22;;
78844;SDS011;68195;50.854;2.860;2023-10-13T03:20:13;10.23;;;4.68;;
78844;SDS011;68195;50.854;2.860;2023-10-13T03:22:58;6.13;;;4.43;;
78844;SDS011;68195;50.854;2.860;2023-10-13T03:25:24;6.85;;;4.70;;
78844;SDS011;68195;50.854;2.860;2023-10-13T03:28:10;8.07;;;4.70;;
78844;SDS011;68195;50.854;2.860;2023-10-13T03:30:39;9.48;;;5.15;;
78844;SDS011;68195;50.854;2.860;2023-10-13T03:33:07;9.02;;;5.20;;
78844;SDS011;68195;50.854;2.860;2023-10-13T03:35:50;11.88;;;5.03;;
78844;SDS011;68195;50.854;2.860;2023-10-13T03:38:21;7.55;;;5.13;;
78844;SDS011;68195;50.854;2.860;2023-10-13T03:40:52;8.50;;;4.85;;
78844;SDS011;68195;50.854;2.860;2023-10-13T03:43:33;11.63;;;5.43;;
78844;SDS011;68195;50.854;2.860;2023-10-13T03:46:10;8.85;;;4.53;;
78844;SDS011;68195;50.854;2.860;2023-10-13T03:48:35;10.07;;;4.82;;
78844;SDS011;68195;50.854;2.860;2023-10-13T03:51:17;10.80;;;5.45;;
78844;SDS011;68195;50.854;2.860;2023-10-13T03:53:43;7.13;;;4.93;;
78844;SDS011;68195;50.854;2.860;2023-10-13T03:56:18;10.00;;;5.53;;
78844;SDS011;68195;50.854;2.860;2023-10-13T03:58:56;9.23;;;4.93;;
78844;SDS011;68195;50.854;2.860;2023-10-13T04:01:40;10.38;;;5.03;;
78844;SDS011;68195;50.854;2.860;2023-10-13T04:04:08;8.35;;;4.50;;
78844;SDS011;68195;50.854;2.860;2023-10-13T04:06:37;10.07;;;4.50;;
78844;SDS011;68195;50.854;2.860;2023-10-13T04:09:19;10.38;;;4.85;;
78844;SDS011;68195;50.854;2.860;2023-10-13T04:11:54;9.05;;;4.80;;
78844;SDS011;68195;50.854;2.860;2023-10-13T04:14:28;9.00;;;4.53;;
78844;SDS011;68195;50.854;2.860;2023-10-13T04:17:15;12.15;;;4.88;;
78844;SDS011;68195;50.854;2.860;2023-10-13T04:22:45;12.48;;;5.00;;
78844;SDS011;68195;50.854;2.860;2023-10-13T04:28:17;7.03;;;5.22;;
78844;SDS011;68195;50.854;2.860;2023-10-13T04:31:03;9.02;;;4.75;;
78844;SDS011;68195;50.854;2.860;2023-10-13T04:33:39;8.80;;;4.88;;
78844;SDS011;68195;50.854;2.860;2023-10-13T04:36:26;10.15;;;5.13;;
78844;SDS011;68195;50.854;2.860;2023-10-13T04:38:53;12.82;;;5.00;;
78844;SDS011;68195;50.854;2.860;2023-10-13T04:41:34;11.85;;;5.50;;
78844;SDS011;68195;50.854;2.860;2023-10-13T04:44:23;11.57;;;4.88;;
78844;SDS011;68195;50.854;2.860;2023-10-13T04:46:56;10.07;;;5.72;;
78844;SDS011;68195;50.854;2.860;2023-10-13T04:49:26;12.63;;;6.18;;
78844;SDS011;68195;50.854;2.860;2023-10-13T04:52:11;8.57;;;5.00;;
78844;SDS011;68195;50.854;2.860;2023-10-13T04:54:37;10.73;;;5.32;;
78844;SDS011;68195;50.854;2.860;2023-10-13T04:57:19;12.57;;;5.53;;
78844;SDS011;68195;50.854;2.860;2023-10-13T04:59:50;11.07;;;6.35;;
78844;SDS011;68195;50.854;2.860;2023-10-13T05:02:35;9.55;;;4.90;;
78844;SDS011;68195;50.854;2.860;2023-10-13T05:05:10;9.02;;;5.38;;
78844;SDS011;68195;50.854;2.860;2023-10-13T05:07:43;10.98;;;5.40;;
78844;SDS011;68195;50.854;2.860;2023-10-13T05:10:30;9.07;;;5.35;;
78844;SDS011;68195;50.854;2.860;2023-10-13T05:13:15;11.20;;;5.15;;
78844;SDS011;68195;50.854;2.860;2023-10-13T05:15:59;12.05;;;6.32;;
78844;SDS011;68195;50.854;2.860;2023-10-13T05:18:43;9.27;;;5.65;;
78844;SDS011;68195;50.854;2.860;2023-10-13T05:24:14;14.20;;;4.82;;
78844;SDS011;68195;50.854;2.860;2023-10-13T05:26:58;8.07;;;4.70;;
78844;SDS011;68195;50.854;2.860;2023-10-13T05:29:47;14.35;;;5.05;;
78844;SDS011;68195;50.854;2.860;2023-10-13T05:32:32;6.63;;;4.57;;
78844;SDS011;68195;50.854;2.860;2023-10-13T05:35:16;11.23;;;5.57;;
78844;SDS011;68195;50.854;2.860;2023-10-13T05:38:02;10.30;;;5.30;;
78844;SDS011;68195;50.854;2.860;2023-10-13T05:43:44;13.10;;;5.28;;
78844;SDS011;68195;50.854;2.860;2023-10-13T05:46:33;9.15;;;4.22;;
78844;SDS011;68195;50.854;2.860;2023-10-13T05:49:02;9.15;;;4.47;;
78844;SDS011;68195;50.854;2.860;2023-10-13T05:51:41;10.82;;;4.68;;
78844;SDS011;68195;50.854;2.860;2023-10-13T05:54:23;12.02;;;4.90;;
78844;SDS011;68195;50.854;2.860;2023-10-13T05:57:07;8.07;;;4.28;;
78844;SDS011;68195;50.854;2.860;2023-10-13T05:59:51;9.02;;;4.82;;
78844;SDS011;68195;50.854;2.860;2023-10-13T06:02:35;11.35;;;4.88;;
78844;SDS011;68195;50.854;2.860;2023-10-13T06:05:19;10.35;;;4.15;;
78844;SDS011;68195;50.854;2.860;2023-10-13T06:08:03;13.95;;;5.32;;
78844;SDS011;68195;50.854;2.860;2023-10-13T06:13:43;10.10;;;4.38;;
78844;SDS011;68195;50.854;2.860;2023-10-13T06:16:27;8.93;;;4.82;;
78844;SDS011;68195;50.854;2.860;2023-10-13T06:19:11;13.05;;;4.43;;
78844;SDS011;68195;50.854;2.860;2023-10-13T06:21:55;12.55;;;4.88;;
78844;SDS011;68195;50.854;2.860;2023-10-13T06:27:23;13.30;;;4.57;;
78844;SDS011;68195;50.854;2.860;2023-10-13T06:32:35;9.23;;;4.20;;
78844;SDS011;68195;50.854;2.860;2023-10-13T06:35:05;9.85;;;4.50;;
78844;SDS011;68195;50.854;2.860;2023-10-13T06:37:43;8.68;;;4.25;;
78844;SDS011;68195;50.854;2.860;2023-10-13T06:40:09;13.00;;;4.38;;
78844;SDS011;68195;50.854;2.860;2023-10-13T06:42:58;9.30;;;4.10;;
78844;SDS011;68195;50.854;2.860;2023-10-13T06:45:42;10.82;;;5.07;;
78844;SDS011;68195;50.854;2.860;2023-10-13T06:48:15;8.80;;;4.40;;
78844;SDS011;68195;50.854;2.860;2023-10-13T06:50:49;9.43;;;4.82;;
78844;SDS011;68195;50.854;2.860;2023-10-13T06:53:17;7.60;;;4.28;;
78844;SDS011;68195;50.854;2.860;2023-10-13T06:55:43;9.95;;;4.13;;
78844;SDS011;68195;50.854;2.860;2023-10-13T06:58:19;11.98;;;4.97;;
78844;SDS011;68195;50.854;2.860;2023-10-13T07:00:49;11.80;;;4.30;;
78844;SDS011;68195;50.854;2.860;2023-10-13T07:03:24;8.77;;;4.75;;
78844;SDS011;68195;50.854;2.860;2023-10-13T07:08:16;8.90;;;3.72;;
78844;SDS011;68195;50.854;2.860;2023-10-13T07:10:53;16.25;;;4.03;;
78844;SDS011;68195;50.854;2.860;2023-10-13T07:13:33;13.55;;;4.90;;
78844;SDS011;68195;50.854;2.860;2023-10-13T07:16:04;10.77;;;4.50;;
78844;SDS011;68195;50.854;2.860;2023-10-13T07:18:38;10.00;;;4.25;;
78844;SDS011;68195;50.854;2.860;2023-10-13T07:21:17;12.10;;;5.40;;
78844;SDS011;68195;50.854;2.860;2023-10-13T07:23:49;14.43;;;5.38;;
78844;SDS011;68195;50.854;2.860;2023-10-13T07:26:26;11.82;;;4.70;;
78844;SDS011;68195;50.854;2.860;2023-10-13T07:28:52;13.25;;;5.05;;
78844;SDS011;68195;50.854;2.860;2023-10-13T07:31:18;11.23;;;4.43;;
78844;SDS011;68195;50.854;2.860;2023-10-13T07:33:46;11.85;;;5.20;;
78844;SDS011;68195;50.854;2.860;2023-10-13T07:36:12;9.65;;;4.60;;
78844;SDS011;68195;50.854;2.860;2023-10-13T07:38:42;13.13;;;5.25;;
78844;SDS011;68195;50.854;2.860;2023-10-13T07:41:13;9.75;;;4.18;;
78844;SDS011;68195;50.854;2.860;2023-10-13T07:43:40;8.73;;;4.47;;
78844;SDS011;68195;50.854;2.860;2023-10-13T07:46:08;12.50;;;5.95;;
78844;SDS011;68195;50.854;2.860;2023-10-13T07:48:37;8.38;;;4.38;;
78844;SDS011;68195;50.854;2.860;2023-10-13T07:51:08;11.57;;;4.50;;
78844;SDS011;68195;50.854;2.860;2023-10-13T07:53:37;10.70;;;4.57;;
78844;SDS011;68195;50.854;2.860;2023-10-13T07:56:08;13.55;;;5.10;;
78844;SDS011;68195;50.854;2.860;2023-10-13T07:58:36;13.23;;;4.90;;
78844;SDS011;68195;50.854;2.860;2023-10-13T08:01:18;11.45;;;4.65;;
78844;SDS011;68195;50.854;2.860;2023-10-13T08:03:46;12.20;;;4.70;;
78844;SDS011;68195;50.854;2.860;2023-10-13T08:06:13;10.73;;;5.15;;
78844;SDS011;68195;50.854;2.860;2023-10-13T08:08:39;12.00;;;5.15;;
78844;SDS011;68195;50.854;2.860;2023-10-13T08:13:53;16.95;;;5.72;;
78844;SDS011;68195;50.854;2.860;2023-10-13T08:16:22;13.88;;;4.95;;
78844;SDS011;68195;50.854;2.860;2023-10-13T08:18:51;12.68;;;4.72;;
78844;SDS011;68195;50.854;2.860;2023-10-13T08:21:18;9.68;;;4.38;;
78844;SDS011;68195;50.854;2.860;2023-10-13T08:23:51;7.90;;;4.43;;
78844;SDS011;68195;50.854;2.860;2023-10-13T08:26:22;14.25;;;4.90;;
78844;SDS011;68195;50.854;2.860;2023-10-13T08:29:01;12.93;;;5.20;;
78844;SDS011;68195;50.854;2.860;2023-10-13T08:31:51;6.85;;;3.53;;
78844;SDS011;68195;50.854;2.860;2023-10-13T08:34:29;21.02;;;7.20;;
78844;SDS011;68195;50.854;2.860;2023-10-13T08:37:05;6.78;;;4.10;;
78844;SDS011;68195;50.854;2.860;2023-10-13T08:39:56;11.60;;;4.93;;
78844;SDS011;68195;50.854;2.860;2023-10-13T08:42:22;10.55;;;4.68;;
78844;SDS011;68195;50.854;2.860;2023-10-13T08:45:15;10.70;;;5.45;;
78844;SDS011;68195;50.854;2.860;2023-10-13T08:47:48;13.20;;;4.90;;
78844;SDS011;68195;50.854;2.860;2023-10-13T08:50:32;8.55;;;5.22;;
78844;SDS011;68195;50.854;2.860;2023-10-13T08:55:58;13.90;;;5.38;;
78844;SDS011;68195;50.854;2.860;2023-10-13T08:58:29;13.25;;;5.40;;
78844;SDS011;68195;50.854;2.860;2023-10-13T09:01:15;13.25;;;5.47;;
78844;SDS011;68195;50.854;2.860;2023-10-13T09:04:03;9.13;;;5.50;;
78844;SDS011;68195;50.854;2.860;2023-10-13T09:06:55;12.65;;;5.05;;
78844;SDS011;68195;50.854;2.860;2023-10-13T09:12:11;11.70;;;5.03;;
78844;SDS011;68195;50.854;2.860;2023-10-13T09:14:42;9.00;;;4.70;;
78844;SDS011;68195;50.854;2.860;2023-10-13T09:17:24;14.63;;;5.18;;
78844;SDS011;68195;50.854;2.860;2023-10-13T09:20:06;15.18;;;7.22;;
78844;SDS011;68195;50.854;2.860;2023-10-13T09:22:48;10.63;;;5.57;;
78844;SDS011;68195;50.854;2.860;2023-10-13T09:25:33;10.25;;;4.60;;
78844;SDS011;68195;50.854;2.860;2023-10-13T09:28:19;14.45;;;4.90;;
78844;SDS011;68195;50.854;2.860;2023-10-13T09:30:47;11.45;;;5.72;;
78844;SDS011;68195;50.854;2.860;2023-10-13T09:33:18;11.35;;;4.97;;
78844;SDS011;68195;50.854;2.860;2023-10-13T09:36:15;11.25;;;5.03;;
78844;SDS011;68195;50.854;2.860;2023-10-13T09:38:46;14.13;;;5.30;;
78844;SDS011;68195;50.854;2.860;2023-10-13T09:41:32;11.07;;;4.80;;
78844;SDS011;68195;50.854;2.860;2023-10-13T09:43:58;11.88;;;5.22;;
78844;SDS011;68195;50.854;2.860;2023-10-13T09:46:28;12.30;;;5.38;;
78844;SDS011;68195;50.854;2.860;2023-10-13T09:48:59;12.10;;;4.97;;
78844;SDS011;68195;50.854;2.860;2023-10-13T09:51:40;8.15;;;4.75;;
78844;SDS011;68195;50.854;2.860;2023-10-13T09:56:53;19.80;;;5.85;;
78844;SDS011;68195;50.854;2.860;2023-10-13T09:59:50;13.60;;;5.25;;
78844;SDS011;68195;50.854;2.860;2023-10-13T10:02:23;10.23;;;4.72;;
78844;SDS011;68195;50.854;2.860;2023-10-13T10:04:51;10.70;;;5.25;;
78844;SDS011;68195;50.854;2.860;2023-10-13T10:07:24;11.38;;;5.68;;
78844;SDS011;68195;50.854;2.860;2023-10-13T10:09:56;9.95;;;5.60;;
78844;SDS011;68195;50.854;2.860;2023-10-13T10:17:59;13.48;;;5.97;;
78844;SDS011;68195;50.854;2.860;2023-10-13T10:20:29;13.80;;;5.68;;
78844;SDS011;68195;50.854;2.860;2023-10-13T10:23:04;12.35;;;5.68;;
78844;SDS011;68195;50.854;2.860;2023-10-13T10:25:35;13.63;;;5.22;;
78844;SDS011;68195;50.854;2.860;2023-10-13T10:28:03;9.65;;;5.88;;
78844;SDS011;68195;50.854;2.860;2023-10-13T10:30:31;10.77;;;5.38;;
78844;SDS011;68195;50.854;2.860;2023-10-13T10:33:03;9.07;;;4.68;;
78844;SDS011;68195;50.854;2.860;2023-10-13T10:35:58;12.93;;;5.40;;
78844;SDS011;68195;50.854;2.860;2023-10-13T10:38:25;11.07;;;5.45;;
78844;SDS011;68195;50.854;2.860;2023-10-13T10:41:05;11.57;;;5.45;;
78844;SDS011;68195;50.854;2.860;2023-10-13T10:46:12;8.95;;;5.10;;
78844;SDS011;68195;50.854;2.860;2023-10-13T10:48:38;16.73;;;6.05;;
78844;SDS011;68195;50.854;2.860;2023-10-13T10:51:08;13.23;;;6.25;;
78844;SDS011;68195;50.854;2.860;2023-10-13T10:53:46;14.80;;;6.50;;
78844;SDS011;68195;50.854;2.860;2023-10-13T10:56:14;13.55;;;5.90;;
78844;SDS011;68195;50.854;2.860;2023-10-13T10:58:59;12.25;;;6.05;;
78844;SDS011;68195;50.854;2.860;2023-10-13T11:01:26;14.98;;;5.82;;
78844;SDS011;68195;50.854;2.860;2023-10-13T11:04:02;18.40;;;6.32;;
78844;SDS011;68195;50.854;2.860;2023-10-13T11:06:44;15.35;;;6.35;;
78844;SDS011;68195;50.854;2.860;2023-10-13T11:09:13;10.90;;;5.35;;
78844;SDS011;68195;50.854;2.860;2023-10-13T11:11:53;15.20;;;6.40;;
78844;SDS011;68195;50.854;2.860;2023-10-13T11:14:26;13.50;;;6.05;;
78844;SDS011;68195;50.854;2.860;2023-10-13T11:16:55;9.45;;;5.18;;
78844;SDS011;68195;50.854;2.860;2023-10-13T11:22:09;9.32;;;5.28;;
78844;SDS011;68195;50.854;2.860;2023-10-13T11:24:58;10.48;;;5.20;;
78844;SDS011;68195;50.854;2.860;2023-10-13T11:27:30;8.80;;;5.13;;
78844;SDS011;68195;50.854;2.860;2023-10-13T11:33:03;13.52;;;5.13;;
78844;SDS011;68195;50.854;2.860;2023-10-13T11:35:36;9.90;;;4.97;;
78844;SDS011;68195;50.854;2.860;2023-10-13T11:38:18;10.80;;;4.50;;
78844;SDS011;68195;50.854;2.860;2023-10-13T11:40:54;9.75;;;5.25;;
78844;SDS011;68195;50.854;2.860;2023-10-13T11:43:41;8.55;;;4.72;;
78844;SDS011;68195;50.854;2.860;2023-10-13T11:46:17;17.88;;;4.82;;
78844;SDS011;68195;50.854;2.860;2023-10-13T11:51:51;8.00;;;4.32;;
78844;SDS011;68195;50.854;2.860;2023-10-13T11:54:17;8.02;;;4.53;;
78844;SDS011;68195;50.854;2.860;2023-10-13T11:56:47;11.30;;;6.63;;
78844;SDS011;68195;50.854;2.860;2023-10-13T11:59:13;13.73;;;4.38;;
78844;SDS011;68195;50.854;2.860;2023-10-13T12:01:43;11.25;;;4.07;;
78844;SDS011;68195;50.854;2.860;2023-10-13T12:04:30;8.10;;;3.80;;
78844;SDS011;68195;50.854;2.860;2023-10-13T12:07:16;9.77;;;3.65;;
78844;SDS011;68195;50.854;2.860;2023-10-13T12:09:48;11.38;;;3.72;;
78844;SDS011;68195;50.854;2.860;2023-10-13T12:12:18;10.02;;;4.32;;
78844;SDS011;68195;50.854;2.860;2023-10-13T12:14:46;12.00;;;5.20;;
78844;SDS011;68195;50.854;2.860;2023-10-13T12:17:18;12.32;;;4.15;;
78844;SDS011;68195;50.854;2.860;2023-10-13T12:19:53;10.68;;;4.20;;
78844;SDS011;68195;50.854;2.860;2023-10-13T12:22:22;12.50;;;4.03;;
78844;SDS011;68195;50.854;2.860;2023-10-13T12:24:57;8.18;;;3.88;;
78844;SDS011;68195;50.854;2.860;2023-10-13T12:27:22;9.73;;;4.60;;
78844;SDS011;68195;50.854;2.860;2023-10-13T12:30:02;9.25;;;4.20;;
78844;SDS011;68195;50.854;2.860;2023-10-13T12:32:33;9.60;;;4.00;;
78844;SDS011;68195;50.854;2.860;2023-10-13T12:34:59;12.80;;;5.25;;
78844;SDS011;68195;50.854;2.860;2023-10-13T12:37:31;9.02;;;3.92;;
78844;SDS011;68195;50.854;2.860;2023-10-13T12:40:13;10.15;;;3.83;;
78844;SDS011;68195;50.854;2.860;2023-10-13T12:42:59;8.32;;;4.35;;
78844;SDS011;68195;50.854;2.860;2023-10-13T12:45:43;10.98;;;4.40;;
78844;SDS011;68195;50.854;2.860;2023-10-13T12:48:29;7.55;;;3.70;;
78844;SDS011;68195;50.854;2.860;2023-10-13T12:51:13;9.65;;;3.88;;
78844;SDS011;68195;50.854;2.860;2023-10-13T12:53:56;10.45;;;3.70;;
78844;SDS011;68195;50.854;2.860;2023-10-13T12:56:41;8.52;;;3.83;;
78844;SDS011;68195;50.854;2.860;2023-10-13T12:59:07;9.40;;;3.97;;
78844;SDS011;68195;50.854;2.860;2023-10-13T13:01:34;10.73;;;6.05;;
78844;SDS011;68195;50.854;2.860;2023-10-13T13:04:00;14.00;;;5.40;;
78844;SDS011;68195;50.854;2.860;2023-10-13T13:06:28;7.88;;;3.50;;
78844;SDS011;68195;50.854;2.860;2023-10-13T13:08:58;10.73;;;4.15;;
78844;SDS011;68195;50.854;2.860;2023-10-13T13:11:25;9.25;;;5.70;;
78844;SDS011;68195;50.854;2.860;2023-10-13T13:13:53;10.68;;;3.97;;
78844;SDS011;68195;50.854;2.860;2023-10-13T13:16:19;6.50;;;4.25;;
78844;SDS011;68195;50.854;2.860;2023-10-13T13:18:52;12.32;;;5.07;;
78844;SDS011;68195;50.854;2.860;2023-10-13T13:21:21;8.85;;;3.85;;
78844;SDS011;68195;50.854;2.860;2023-10-13T13:23:49;7.45;;;4.50;;
78844;SDS011;68195;50.854;2.860;2023-10-13T13:26:15;13.45;;;4.78;;
78844;SDS011;68195;50.854;2.860;2023-10-13T13:28:44;11.57;;;3.88;;
78844;SDS011;68195;50.854;2.860;2023-10-13T13:31:16;9.30;;;4.22;;
78844;SDS011;68195;50.854;2.860;2023-10-13T13:33:42;11.63;;;4.85;;
78844;SDS011;68195;50.854;2.860;2023-10-13T13:36:11;8.85;;;4.47;;
78844;SDS011;68195;50.854;2.860;2023-10-13T13:38:41;12.63;;;4.25;;
78844;SDS011;68195;50.854;2.860;2023-10-13T13:41:13;8.07;;;3.70;;
78844;SDS011;68195;50.854;2.860;2023-10-13T13:43:42;7.63;;;3.83;;
78844;SDS011;68195;50.854;2.860;2023-10-13T13:46:11;11.85;;;4.07;;
78844;SDS011;68195;50.854;2.860;2023-10-13T13:48:40;12.25;;;3.45;;
78844;SDS011;68195;50.854;2.860;2023-10-13T13:51:06;14.30;;;4.22;;
78844;SDS011;68195;50.854;2.860;2023-10-13T13:53:44;7.50;;;3.97;;
78844;SDS011;68195;50.854;2.860;2023-10-13T13:56:11;12.55;;;4.00;;
78844;SDS011;68195;50.854;2.860;2023-10-13T13:58:43;17.23;;;3.88;;
78844;SDS011;68195;50.854;2.860;2023-10-13T14:01:11;9.35;;;4.47;;
78844;SDS011;68195;50.854;2.860;2023-10-13T14:03:44;12.18;;;4.13;;
78844;SDS011;68195;50.854;2.860;2023-10-13T14:06:19;12.40;;;4.38;;
78844;SDS011;68195;50.854;2.860;2023-10-13T14:08:48;10.25;;;4.13;;
78844;SDS011;68195;50.854;2.860;2023-10-13T14:11:16;9.48;;;3.95;;
78844;SDS011;68195;50.854;2.860;2023-10-13T14:14:01;14.57;;;6.07;;
78844;SDS011;68195;50.854;2.860;2023-10-13T14:16:29;6.97;;;3.28;;
78844;SDS011;68195;50.854;2.860;2023-10-13T14:19:00;12.05;;;4.20;;
78844;SDS011;68195;50.854;2.860;2023-10-13T14:21:32;7.35;;;4.03;;
78844;SDS011;68195;50.854;2.860;2023-10-13T14:24:00;10.27;;;3.97;;
78844;SDS011;68195;50.854;2.860;2023-10-13T14:26:26;10.30;;;3.78;;
78844;SDS011;68195;50.854;2.860;2023-10-13T14:28:58;9.98;;;3.95;;
78844;SDS011;68195;50.854;2.860;2023-10-13T14:31:33;9.18;;;4.07;;
78844;SDS011;68195;50.854;2.860;2023-10-13T14:34:06;12.15;;;4.63;;
78844;SDS011;68195;50.854;2.860;2023-10-13T14:36:32;11.00;;;5.10;;
78844;SDS011;68195;50.854;2.860;2023-10-13T14:39:07;10.70;;;4.93;;
78844;SDS011;68195;50.854;2.860;2023-10-13T14:41:35;11.18;;;4.45;;
78844;SDS011;68195;50.854;2.860;2023-10-13T14:44:02;9.75;;;4.35;;
78844;SDS011;68195;50.854;2.860;2023-10-13T14:46:31;11.07;;;5.18;;
78844;SDS011;68195;50.854;2.860;2023-10-13T14:49:05;13.73;;;5.97;;
78844;SDS011;68195;50.854;2.860;2023-10-13T14:51:31;9.30;;;4.78;;
78844;SDS011;68195;50.854;2.860;2023-10-13T14:53:57;12.70;;;4.93;;
78844;SDS011;68195;50.854;2.860;2023-10-13T14:56:24;15.30;;;5.93;;
78844;SDS011;68195;50.854;2.860;2023-10-13T14:58:54;11.60;;;4.50;;
78844;SDS011;68195;50.854;2.860;2023-10-13T15:01:20;10.75;;;4.63;;
78844;SDS011;68195;50.854;2.860;2023-10-13T15:03:50;9.73;;;4.97;;
78844;SDS011;68195;50.854;2.860;2023-10-13T15:06:26;11.95;;;4.68;;
78844;SDS011;68195;50.854;2.860;2023-10-13T15:08:58;13.80;;;5.38;;
78844;SDS011;68195;50.854;2.860;2023-10-13T15:11:27;11.18;;;4.38;;
78844;SDS011;68195;50.854;2.860;2023-10-13T15:14:03;10.85;;;5.00;;
78844;SDS011;68195;50.854;2.860;2023-10-13T15:16:31;14.05;;;4.60;;
78844;SDS011;68195;50.854;2.860;2023-10-13T15:18:59;10.25;;;4.75;;
78844;SDS011;68195;50.854;2.860;2023-10-13T15:21:25;11.23;;;4.53;;
78844;SDS011;68195;50.854;2.860;2023-10-13T15:24:01;14.95;;;5.07;;
78844;SDS011;68195;50.854;2.860;2023-10-13T15:26:45;12.02;;;5.20;;
78844;SDS011;68195;50.854;2.860;2023-10-13T15:29:17;13.48;;;5.05;;
78844;SDS011;68195;50.854;2.860;2023-10-13T15:31:44;14.15;;;4.43;;
78844;SDS011;68195;50.854;2.860;2023-10-13T15:34:30;11.98;;;4.43;;
78844;SDS011;68195;50.854;2.860;2023-10-13T15:36:56;12.48;;;5.15;;
78844;SDS011;68195;50.854;2.860;2023-10-13T15:39:30;10.13;;;4.45;;
78844;SDS011;68195;50.854;2.860;2023-10-13T15:41:56;16.88;;;5.97;;
78844;SDS011;68195;50.854;2.860;2023-10-13T15:44:29;9.85;;;4.57;;
78844;SDS011;68195;50.854;2.860;2023-10-13T15:47:01;12.38;;;4.95;;
78844;SDS011;68195;50.854;2.860;2023-10-13T15:49:29;11.07;;;4.82;;
78844;SDS011;68195;50.854;2.860;2023-10-13T15:51:59;9.73;;;4.95;;
78844;SDS011;68195;50.854;2.860;2023-10-13T15:54:24;12.13;;;5.13;;
78844;SDS011;68195;50.854;2.860;2023-10-13T15:56:52;13.98;;;6.13;;
78844;SDS011;68195;50.854;2.860;2023-10-13T15:59:19;12.07;;;5.57;;
78844;SDS011;68195;50.854;2.860;2023-10-13T16:01:44;12.55;;;5.15;;
78844;SDS011;68195;50.854;2.860;2023-10-13T16:04:13;8.05;;;4.57;;
78844;SDS011;68195;50.854;2.860;2023-10-13T16:06:44;11.38;;;5.57;;
78844;SDS011;68195;50.854;2.860;2023-10-13T16:09:12;13.20;;;5.13;;
78844;SDS011;68195;50.854;2.860;2023-10-13T16:11:43;12.43;;;5.13;;
78844;SDS011;68195;50.854;2.860;2023-10-13T16:14:12;15.43;;;5.13;;
78844;SDS011;68195;50.854;2.860;2023-10-13T16:16:46;8.50;;;4.63;;